createdAt,value
2022-10-31T00:00:28.673Z,80.85
2022-10-31T00:02:55.114Z,80.72
2022-10-31T00:05:21.943Z,81.20
2022-10-31T00:07:48.329Z,81.08
2022-10-31T00:10:14.766Z,81.08
2022-10-31T00:12:41.211Z,81.06
2022-10-31T00:15:07.803Z,81.29
2022-10-31T00:17:37.192Z,81.08
2022-10-31T00:20:04.099Z,81.16
2022-10-31T00:22:30.469Z,81.20
2022-10-31T00:24:56.812Z,81.22
2022-10-31T00:27:23.152Z,81.38
2022-10-31T00:29:49.472Z,82.02
2022-10-31T00:32:15.803Z,82.37
2022-10-31T00:34:42.148Z,82.43
2022-10-31T00:37:08.490Z,82.50
2022-10-31T00:39:34.855Z,82.95
2022-10-31T00:42:01.172Z,83.29
2022-10-31T00:44:27.488Z,83.25
2022-10-31T00:46:53.876Z,83.45
2022-10-31T00:49:20.176Z,83.25
2022-10-31T00:51:46.525Z,83.36
2022-10-31T00:54:12.949Z,83.66
2022-10-31T00:56:39.288Z,83.60
2022-10-31T00:59:05.602Z,83.76
2022-10-31T01:01:32.123Z,83.60
2022-10-31T01:03:58.516Z,83.38
2022-10-31T01:06:24.874Z,83.34
2022-10-31T01:08:51.218Z,82.76
2022-10-31T01:11:21.927Z,83.02
2022-10-31T01:13:51.151Z,82.84
2022-10-31T01:16:19.660Z,82.79
2022-10-31T01:18:46.173Z,82.62
2022-10-31T01:21:14.033Z,82.83
2022-10-31T01:23:40.558Z,82.98
2022-10-31T01:26:10.579Z,83.16
2022-10-31T01:28:39.368Z,82.73
2022-10-31T01:31:08.197Z,83.09
2022-10-31T01:33:34.965Z,82.86
2022-10-31T01:36:01.851Z,82.96
2022-10-31T01:38:28.648Z,83.36
2022-10-31T01:40:54.972Z,83.14
2022-10-31T01:45:54.928Z,83.25
2022-10-31T01:48:28.777Z,83.34
2022-10-31T01:50:56.105Z,83.36
2022-10-31T01:53:26.818Z,83.82
2022-10-31T01:55:53.893Z,83.40
2022-10-31T01:58:25.812Z,83.21
2022-10-31T02:00:57.565Z,83.75
2022-10-31T02:03:26.881Z,83.84
2022-10-31T02:05:58.386Z,83.46
2022-10-31T02:08:29.974Z,83.79
2022-10-31T02:10:58.768Z,83.52
2022-10-31T02:15:59.391Z,83.49
2022-10-31T02:18:29.448Z,83.59
2022-10-31T02:21:03.836Z,83.84
2022-10-31T02:23:57.417Z,83.90
2022-10-31T02:26:42.550Z,83.96
2022-10-31T02:29:36.992Z,84.24
2022-10-31T02:32:10.607Z,84.36
2022-10-31T02:34:59.252Z,83.99
2022-10-31T02:37:50.129Z,83.89
2022-10-31T02:40:26.596Z,83.64
2022-10-31T02:43:11.486Z,84.39
2022-10-31T02:46:09.931Z,84.93
2022-10-31T02:48:40.035Z,85.10
2022-10-31T02:51:07.799Z,85.43
2022-10-31T02:53:35.965Z,85.59
2022-10-31T02:56:07.080Z,85.51
2022-10-31T02:58:43.289Z,85.58
2022-10-31T03:01:23.112Z,85.24
2022-10-31T03:04:32.260Z,84.97
2022-10-31T03:07:24.383Z,85.16
2022-10-31T03:09:59.570Z,85.12
2022-10-31T03:12:38.250Z,85.50
2022-10-31T03:15:34.891Z,85.84
2022-10-31T03:18:16.179Z,86.20
2022-10-31T03:20:56.487Z,86.43
2022-10-31T03:23:25.419Z,86.17
2022-10-31T03:25:54.752Z,86.49
2022-10-31T03:28:28.778Z,86.40
2022-10-31T03:30:55.890Z,86.14
2022-10-31T03:33:28.348Z,86.51
2022-10-31T03:35:58.485Z,86.61
2022-10-31T03:38:24.838Z,86.63
2022-10-31T03:40:53.854Z,86.32
2022-10-31T03:43:25.311Z,86.48
2022-10-31T03:45:52.284Z,86.41
2022-10-31T03:48:20.678Z,86.32
2022-10-31T03:51:00.825Z,85.94
2022-10-31T03:53:31.286Z,86.03
2022-10-31T03:56:08.205Z,86.46
2022-10-31T03:58:40.254Z,86.17
2022-10-31T04:01:14.616Z,86.68
2022-10-31T04:03:41.830Z,86.41
2022-10-31T04:06:12.107Z,86.25
2022-10-31T04:08:43.650Z,86.34
2022-10-31T04:11:13.221Z,86.11
2022-10-31T04:13:41.112Z,86.09
2022-10-31T04:16:11.338Z,86.43
2022-10-31T04:18:40.673Z,85.93
2022-10-31T04:21:08.871Z,86.07
2022-10-31T04:23:36.473Z,86.09
2022-10-31T04:26:03.528Z,86.02
2022-10-31T04:28:29.957Z,86.17
2022-10-31T04:30:56.327Z,85.96
2022-10-31T04:33:22.894Z,86.02
2022-10-31T04:35:49.252Z,85.59
2022-10-31T04:38:15.832Z,85.62
2022-10-31T04:40:42.176Z,85.84
2022-10-31T04:43:08.596Z,85.89
2022-10-31T04:45:35.001Z,85.93
2022-10-31T04:48:01.834Z,85.90
2022-10-31T04:50:28.473Z,86.02
2022-10-31T04:52:54.840Z,85.96
2022-10-31T04:55:21.217Z,86.33
2022-10-31T04:57:49.621Z,86.17
2022-10-31T05:00:18.836Z,86.27
2022-10-31T05:02:53.287Z,85.98
2022-10-31T05:05:21.936Z,86.39
2022-10-31T05:07:50.185Z,86.73
2022-10-31T05:10:19.409Z,86.71
2022-10-31T05:12:51.461Z,86.62
2022-10-31T05:15:21.281Z,86.43
2022-10-31T05:17:48.117Z,86.48
2022-10-31T05:20:16.669Z,86.29
2022-10-31T05:22:44.845Z,86.75
2022-10-31T05:25:12.052Z,86.78
2022-10-31T05:27:43.246Z,86.61
2022-10-31T05:30:11.438Z,86.53
2022-10-31T05:32:42.837Z,86.36
2022-10-31T05:35:11.603Z,86.46
2022-10-31T05:37:38.364Z,86.42
2022-10-31T05:40:08.411Z,86.56
2022-10-31T05:42:35.314Z,86.46
2022-10-31T05:45:01.686Z,86.46
2022-10-31T05:47:28.193Z,86.64
2022-10-31T05:49:54.558Z,86.68
2022-10-31T05:52:20.895Z,86.83
2022-10-31T05:54:47.220Z,86.69
2022-10-31T05:57:13.571Z,86.79
2022-10-31T05:59:39.909Z,86.68
2022-10-31T06:02:06.233Z,87.09
2022-10-31T06:04:32.657Z,87.30
2022-10-31T06:07:00.166Z,87.06
2022-10-31T06:09:26.478Z,87.02
2022-10-31T06:11:52.797Z,87.29
2022-10-31T06:14:19.116Z,87.40
2022-10-31T06:16:45.459Z,87.50
2022-10-31T06:19:11.783Z,87.49
2022-10-31T06:21:38.137Z,87.26
2022-10-31T06:24:04.912Z,87.30
2022-10-31T06:26:31.233Z,87.36
2022-10-31T06:29:01.428Z,87.13
2022-10-31T06:31:30.953Z,87.10
2022-10-31T06:33:57.716Z,87.10
2022-10-31T06:36:24.246Z,87.09
2022-10-31T06:38:50.597Z,87.16
2022-10-31T06:41:16.998Z,87.32
2022-10-31T06:43:43.358Z,87.28
2022-10-31T06:46:09.770Z,87.34
2022-10-31T06:48:36.449Z,87.76
2022-10-31T06:51:03.018Z,87.50
2022-10-31T06:53:30.640Z,87.29
2022-10-31T06:55:57.687Z,87.11
2022-10-31T06:58:24.082Z,87.00
2022-10-31T07:00:50.479Z,86.95
2022-10-31T07:03:16.865Z,87.03
2022-10-31T07:05:43.923Z,87.02
2022-10-31T07:08:13.347Z,86.98
2022-10-31T07:10:41.835Z,86.74
2022-10-31T07:13:12.954Z,86.63
2022-10-31T07:15:40.877Z,86.77
2022-10-31T07:18:09.895Z,86.43
2022-10-31T07:20:36.775Z,85.65
2022-10-31T07:23:04.511Z,85.21
2022-10-31T07:25:31.304Z,85.68
2022-10-31T07:27:57.838Z,85.82
2022-10-31T07:30:24.439Z,85.52
2022-10-31T07:32:51.518Z,84.41
2022-10-31T07:35:25.057Z,84.56
2022-10-31T07:37:51.966Z,85.09
2022-10-31T07:40:19.532Z,85.04
2022-10-31T07:42:48.007Z,84.72
2022-10-31T07:45:17.784Z,84.66
2022-10-31T07:47:54.215Z,84.66
2022-10-31T07:50:22.956Z,84.14
2022-10-31T07:52:58.271Z,83.72
2022-10-31T07:55:24.607Z,83.59
2022-10-31T07:58:15.116Z,82.73
2022-10-31T08:00:43.389Z,82.38
2022-10-31T08:03:15.223Z,83.07
2022-10-31T08:05:42.610Z,83.05
2022-10-31T08:08:09.543Z,82.69
2022-10-31T08:10:36.824Z,83.18
2022-10-31T08:13:08.914Z,83.29
2022-10-31T08:15:38.863Z,82.98
2022-10-31T08:18:06.463Z,82.69
2022-10-31T08:20:32.890Z,82.91
2022-10-31T08:23:01.668Z,83.34
2022-10-31T08:25:32.419Z,83.71
2022-10-31T08:28:03.087Z,83.29
2022-10-31T08:30:31.945Z,83.59
2022-10-31T08:33:11.544Z,83.23
2022-10-31T08:35:38.369Z,83.11
2022-10-31T08:38:05.399Z,83.35
2022-10-31T08:40:33.448Z,82.45
2022-10-31T08:43:18.781Z,81.93
2022-10-31T08:45:48.359Z,82.04
2022-10-31T08:48:17.136Z,80.98
2022-10-31T08:50:45.000Z,81.77
2022-10-31T08:53:19.163Z,82.48
2022-10-31T08:55:47.315Z,81.63
2022-10-31T08:58:19.426Z,81.11
2022-10-31T09:00:47.662Z,80.79
2022-10-31T09:03:20.701Z,81.00
2022-10-31T09:05:47.223Z,80.69
2022-10-31T09:08:16.763Z,81.31
2022-10-31T09:10:44.433Z,80.53
2022-10-31T09:13:16.907Z,80.93
2022-10-31T09:15:45.029Z,80.31
2022-10-31T09:18:12.992Z,79.67
2022-10-31T09:20:41.256Z,79.56
2022-10-31T09:23:10.868Z,79.77
2022-10-31T09:25:37.715Z,79.83
2022-10-31T09:28:05.927Z,80.14
2022-10-31T09:30:34.509Z,79.53
2022-10-31T09:33:03.193Z,79.60
2022-10-31T09:35:30.263Z,80.00
2022-10-31T09:37:58.178Z,80.66
2022-10-31T09:40:40.986Z,80.17
2022-10-31T09:43:34.515Z,79.61
2022-10-31T09:46:12.704Z,79.87
2022-10-31T09:49:03.243Z,79.31
2022-10-31T09:51:34.124Z,79.35
2022-10-31T09:54:22.831Z,77.52
2022-10-31T09:56:49.593Z,76.78
2022-10-31T09:59:32.167Z,77.38
2022-10-31T10:02:10.406Z,72.79
2022-10-31T10:04:48.942Z,72.19
2022-10-31T10:07:31.356Z,67.62
2022-10-31T10:09:58.904Z,66.48
2022-10-31T10:12:52.124Z,67.81
2022-10-31T10:15:57.149Z,65.38
2022-10-31T10:18:37.908Z,59.53
2022-10-31T10:21:11.828Z,59.16
2022-10-31T10:23:55.881Z,59.72
2022-10-31T10:26:29.756Z,61.74
2022-10-31T10:29:02.161Z,61.25
2022-10-31T10:31:36.559Z,60.90
2022-10-31T10:34:15.177Z,59.58
2022-10-31T10:36:41.465Z,56.87
2022-10-31T10:39:23.502Z,56.51
2022-10-31T10:42:10.515Z,56.01
2022-10-31T10:45:03.476Z,58.48
2022-10-31T10:47:41.261Z,58.81
2022-10-31T10:50:18.320Z,57.92
2022-10-31T10:53:32.702Z,59.30
2022-10-31T10:56:21.668Z,59.51
2022-10-31T10:58:48.949Z,60.63
2022-10-31T11:03:47.435Z,61.39
2022-10-31T11:06:26.686Z,60.53
2022-10-31T11:08:53.748Z,60.56
2022-10-31T11:11:28.615Z,59.09
2022-10-31T11:14:04.146Z,61.95
2022-10-31T11:16:40.787Z,62.59
2022-10-31T11:19:15.637Z,62.98
2022-10-31T11:21:42.628Z,62.02
2022-10-31T11:24:11.706Z,60.91
2022-10-31T11:26:40.271Z,60.43
2022-10-31T11:29:15.488Z,59.42
2022-10-31T11:31:42.875Z,60.98
2022-10-31T11:34:46.820Z,59.95
2022-10-31T11:37:17.918Z,58.18
2022-10-31T11:39:56.209Z,61.19
2022-10-31T11:42:25.428Z,58.97
2022-10-31T11:44:53.776Z,60.02
2022-10-31T11:47:33.452Z,60.13
2022-10-31T11:50:03.860Z,61.22
2022-10-31T11:52:33.171Z,59.99
2022-10-31T11:55:16.334Z,59.65
2022-10-31T11:57:52.476Z,59.37
2022-10-31T12:00:25.017Z,58.46
2022-10-31T12:02:52.776Z,57.51
2022-10-31T12:05:24.402Z,57.76
2022-10-31T12:07:50.993Z,57.81
2022-10-31T12:10:22.168Z,56.53
2022-10-31T12:12:56.013Z,53.63
2022-10-31T12:15:34.317Z,52.26
2022-10-31T12:18:00.640Z,55.15
2022-10-31T12:20:51.768Z,55.65
2022-10-31T12:23:34.879Z,55.35
2022-10-31T12:26:27.305Z,55.31
2022-10-31T12:29:21.302Z,53.98
2022-10-31T12:31:54.399Z,54.11
2022-10-31T12:34:49.472Z,55.20
2022-10-31T12:37:35.828Z,56.48
2022-10-31T12:40:21.613Z,55.24
2022-10-31T12:43:34.801Z,56.05
2022-10-31T12:46:02.993Z,54.72
2022-10-31T12:48:35.992Z,53.07
2022-10-31T12:51:34.716Z,54.90
2022-10-31T12:54:22.809Z,53.90
2022-10-31T12:57:21.460Z,54.23
2022-10-31T13:00:03.906Z,54.60
2022-10-31T13:02:43.295Z,54.96
2022-10-31T13:05:22.940Z,53.61
2022-10-31T13:07:59.838Z,55.38
2022-10-31T13:10:43.895Z,55.94
2022-10-31T13:13:36.726Z,57.68
2022-10-31T13:16:14.180Z,56.77
2022-10-31T13:18:56.865Z,55.12
2022-10-31T13:21:28.059Z,58.07
2022-10-31T13:23:58.826Z,57.70
2022-10-31T13:26:53.981Z,58.96
2022-10-31T13:29:34.254Z,58.30
2022-10-31T13:32:05.407Z,57.45
2022-10-31T13:34:36.696Z,58.25
2022-10-31T13:37:06.992Z,56.20
2022-10-31T13:40:07.130Z,59.16
2022-10-31T13:42:52.066Z,59.44
2022-10-31T13:45:21.461Z,58.32
2022-10-31T13:48:07.348Z,59.58
2022-10-31T13:50:34.213Z,58.23
2022-10-31T13:53:18.981Z,56.77
2022-10-31T13:55:51.292Z,57.09
2022-10-31T13:58:29.631Z,58.81
2022-10-31T14:01:11.449Z,59.15
2022-10-31T14:04:04.708Z,56.80
2022-10-31T14:06:41.602Z,58.46
2022-10-31T14:09:20.274Z,59.15
2022-10-31T14:11:49.074Z,58.68
2022-10-31T14:14:16.459Z,58.58
2022-10-31T14:16:44.990Z,58.43
2022-10-31T14:19:18.555Z,59.67
2022-10-31T14:21:49.051Z,58.95
2022-10-31T14:24:32.843Z,59.87
2022-10-31T14:27:25.353Z,59.76
2022-10-31T14:29:51.759Z,58.18
2022-10-31T14:32:26.665Z,59.14
2022-10-31T14:34:57.144Z,58.48
2022-10-31T14:37:38.339Z,59.58
2022-10-31T14:40:16.874Z,60.17
2022-10-31T14:42:53.568Z,58.39
2022-10-31T14:45:57.178Z,60.92
2022-10-31T14:48:55.709Z,59.78
2022-10-31T14:51:24.081Z,59.97
2022-10-31T14:53:55.722Z,61.37
2022-10-31T14:56:35.301Z,59.79
2022-10-31T14:59:12.865Z,60.77
2022-10-31T15:01:40.882Z,57.53
2022-10-31T15:04:29.442Z,60.04
2022-10-31T15:07:09.660Z,61.18
2022-10-31T15:09:38.538Z,58.39
2022-10-31T15:12:25.765Z,60.12
2022-10-31T15:14:53.130Z,60.72
2022-10-31T15:17:21.186Z,60.55
2022-10-31T15:19:47.988Z,58.62
2022-10-31T15:22:17.452Z,58.54
2022-10-31T15:24:44.656Z,59.29
2022-10-31T15:27:16.459Z,59.19
2022-10-31T15:29:56.778Z,59.63
2022-10-31T15:32:28.429Z,58.63
2022-10-31T15:34:57.024Z,57.89
2022-10-31T15:37:30.396Z,59.74
2022-10-31T15:39:56.758Z,58.07
2022-10-31T15:42:29.902Z,57.71
2022-10-31T15:45:03.656Z,58.85
2022-10-31T15:47:32.924Z,58.78
2022-10-31T15:50:01.664Z,59.84
2022-10-31T15:52:36.668Z,59.51
2022-10-31T15:55:07.838Z,59.98
2022-10-31T15:57:34.544Z,60.20
2022-10-31T16:00:00.954Z,60.14
2022-10-31T16:02:28.485Z,61.07
2022-10-31T16:05:18.937Z,60.59
2022-10-31T16:07:52.783Z,60.58
2022-10-31T16:10:24.970Z,61.30
2022-10-31T16:12:51.752Z,61.84
2022-10-31T16:15:20.581Z,61.53
2022-10-31T16:17:49.932Z,61.81
2022-10-31T16:20:22.371Z,61.61
2022-10-31T16:22:53.554Z,62.14
2022-10-31T16:25:38.304Z,61.51
2022-10-31T16:30:48.269Z,62.10
2022-10-31T16:33:41.457Z,62.24
2022-10-31T16:36:36.151Z,61.55
2022-10-31T16:39:03.441Z,61.79
2022-10-31T16:41:29.827Z,61.99
2022-10-31T16:43:56.171Z,62.49
2022-10-31T16:46:25.849Z,62.05
2022-10-31T16:48:52.651Z,62.39
2022-10-31T16:51:19.260Z,61.36
2022-10-31T16:53:46.831Z,62.21
2022-10-31T16:56:19.372Z,62.37
2022-10-31T16:58:46.024Z,62.77
2022-10-31T17:01:13.765Z,63.49
2022-10-31T17:03:40.825Z,61.37
2022-10-31T17:06:11.861Z,62.87
2022-10-31T17:08:38.196Z,62.20
2022-10-31T17:11:06.020Z,62.67
2022-10-31T17:13:34.571Z,62.72
2022-10-31T17:16:03.399Z,61.46
2022-10-31T17:18:30.876Z,61.32
2022-10-31T17:20:59.777Z,61.07
2022-10-31T17:23:26.371Z,60.89
2022-10-31T17:25:52.668Z,59.91
2022-10-31T17:28:18.998Z,60.32
2022-10-31T17:30:45.324Z,59.25
2022-10-31T17:33:16.317Z,60.39
2022-10-31T17:35:44.743Z,60.12
2022-10-31T17:38:11.930Z,60.37
2022-10-31T17:40:39.930Z,60.72
2022-10-31T17:43:06.326Z,62.04
2022-10-31T17:45:33.164Z,62.11
2022-10-31T17:47:59.535Z,61.68
2022-10-31T17:50:27.109Z,62.81
2022-10-31T17:52:53.669Z,63.76
2022-10-31T17:55:20.291Z,63.25
2022-10-31T17:57:46.823Z,62.92
2022-10-31T18:00:16.889Z,63.60
2022-10-31T18:02:43.829Z,62.67
2022-10-31T18:05:10.689Z,63.69
2022-10-31T18:07:37.063Z,63.24
2022-10-31T18:10:04.117Z,64.02
2022-10-31T18:12:32.292Z,63.95
2022-10-31T18:14:58.886Z,63.83
2022-10-31T18:17:25.402Z,64.40
2022-10-31T18:19:51.747Z,64.39
2022-10-31T18:22:18.244Z,64.32
2022-10-31T18:24:44.735Z,64.94
2022-10-31T18:27:11.102Z,65.41
2022-10-31T18:29:37.433Z,65.12
2022-10-31T18:32:09.032Z,64.82
2022-10-31T18:34:35.800Z,65.50
2022-10-31T18:37:02.227Z,64.98
2022-10-31T18:39:28.572Z,64.96
2022-10-31T18:41:55.127Z,65.41
2022-10-31T18:44:21.545Z,65.32
2022-10-31T18:46:48.069Z,64.48
2022-10-31T18:49:15.458Z,65.00
2022-10-31T18:51:41.803Z,64.79
2022-10-31T18:54:08.529Z,64.98
2022-10-31T18:56:34.856Z,65.43
2022-10-31T18:59:04.694Z,65.26
2022-10-31T19:01:31.400Z,64.76
2022-10-31T19:03:58.845Z,64.97
2022-10-31T19:06:26.740Z,65.13
2022-10-31T19:09:01.533Z,65.50
2022-10-31T19:11:28.272Z,65.98
2022-10-31T19:13:54.656Z,65.69
2022-10-31T19:16:20.967Z,65.41
2022-10-31T19:18:47.318Z,65.33
2022-10-31T19:21:16.424Z,66.46
2022-10-31T19:23:44.224Z,66.27
2022-10-31T19:26:11.338Z,66.21
2022-10-31T19:28:39.545Z,66.63
2022-10-31T19:31:06.719Z,65.99
2022-10-31T19:33:36.043Z,66.64
2022-10-31T19:36:11.242Z,66.47
2022-10-31T19:38:40.192Z,66.94
2022-10-31T19:41:09.622Z,67.12
2022-10-31T19:43:36.652Z,67.43
2022-10-31T19:46:04.904Z,67.25
2022-10-31T19:48:31.756Z,66.91
2022-10-31T19:51:07.313Z,67.51
2022-10-31T19:53:34.359Z,67.66
2022-10-31T19:56:01.503Z,67.01
2022-10-31T19:58:28.241Z,67.20
2022-10-31T20:00:55.541Z,67.34
2022-10-31T20:03:22.789Z,67.09
2022-10-31T20:05:50.613Z,67.25
2022-10-31T20:08:21.234Z,67.84
2022-10-31T20:10:58.376Z,67.40
2022-10-31T20:13:25.181Z,67.48
2022-10-31T20:15:52.180Z,67.72
2022-10-31T20:18:19.001Z,67.24
2022-10-31T20:20:45.478Z,66.91
2022-10-31T20:23:11.797Z,67.53
2022-10-31T20:25:38.277Z,66.32
2022-10-31T20:28:04.864Z,66.31
2022-10-31T20:30:31.380Z,66.94
2022-10-31T20:32:57.810Z,67.69
2022-10-31T20:35:24.169Z,67.10
2022-10-31T20:37:50.490Z,67.93
2022-10-31T20:40:17.012Z,67.93
2022-10-31T20:42:43.372Z,67.74
2022-10-31T20:45:11.231Z,67.10
2022-10-31T20:47:37.611Z,67.19
2022-10-31T20:50:05.265Z,67.28
2022-10-31T20:52:31.599Z,66.08
2022-10-31T20:54:57.929Z,66.01
2022-10-31T20:57:24.276Z,65.92
2022-10-31T20:59:50.696Z,65.99
2022-10-31T21:02:17.249Z,65.77
2022-10-31T21:04:43.714Z,66.23
2022-10-31T21:07:10.070Z,66.09
2022-10-31T21:09:36.961Z,65.94
2022-10-31T21:12:03.446Z,66.15
2022-10-31T21:14:29.873Z,66.38
2022-10-31T21:16:56.242Z,66.62
2022-10-31T21:19:22.669Z,66.75
2022-10-31T21:21:49.298Z,66.79
2022-10-31T21:26:51.873Z,67.19
2022-10-31T21:29:19.352Z,67.18
2022-10-31T21:31:46.987Z,66.64
2022-10-31T21:34:13.880Z,66.89
2022-10-31T21:36:40.840Z,67.08
2022-10-31T21:39:08.688Z,66.31
2022-10-31T21:41:35.497Z,67.36
2022-10-31T21:44:02.134Z,67.06
2022-10-31T21:46:30.892Z,67.44
2022-10-31T21:48:58.082Z,67.21
2022-10-31T21:51:26.760Z,67.22
2022-10-31T21:54:11.827Z,67.93
2022-10-31T21:56:38.424Z,68.08
2022-10-31T21:59:05.299Z,67.65
2022-10-31T22:01:32.410Z,67.72
2022-10-31T22:03:59.583Z,68.12
2022-10-31T22:06:31.635Z,68.11
2022-10-31T22:09:00.158Z,67.79
2022-10-31T22:11:28.348Z,67.68
2022-10-31T22:13:55.690Z,67.76
2022-10-31T22:16:24.564Z,67.56
2022-10-31T22:18:55.656Z,67.83
2022-10-31T22:21:24.894Z,67.76
2022-10-31T22:23:52.953Z,67.38
2022-10-31T22:26:19.597Z,67.54
2022-10-31T22:28:48.210Z,67.61
2022-10-31T22:31:19.110Z,67.22
2022-10-31T22:33:46.632Z,67.75
2022-10-31T22:36:16.694Z,67.88
2022-10-31T22:38:44.075Z,68.08
2022-10-31T22:41:24.590Z,68.23
2022-10-31T22:43:51.248Z,68.23
2022-10-31T22:46:20.295Z,67.02
2022-10-31T22:48:50.175Z,67.86
2022-10-31T22:51:23.383Z,68.37
2022-10-31T22:53:50.768Z,68.29
2022-10-31T22:56:20.319Z,68.47
2022-10-31T22:58:47.330Z,67.62
2022-10-31T23:01:19.516Z,67.49
2022-10-31T23:03:46.812Z,67.16
2022-10-31T23:06:16.255Z,67.25
2022-10-31T23:08:43.622Z,67.38
2022-10-31T23:11:17.024Z,66.89
2022-10-31T23:14:03.383Z,65.49
2022-10-31T23:16:29.922Z,66.58
2022-10-31T23:18:56.235Z,65.73
2022-10-31T23:21:43.960Z,66.70
2022-10-31T23:24:11.683Z,65.91
2022-10-31T23:26:57.719Z,65.80
2022-10-31T23:29:24.682Z,66.61
2022-10-31T23:31:54.324Z,66.61
2022-10-31T23:34:21.845Z,65.95
2022-10-31T23:36:48.665Z,65.37
2022-10-31T23:39:14.970Z,67.16
2022-10-31T23:41:41.376Z,66.76
2022-10-31T23:44:07.810Z,66.31
2022-10-31T23:46:34.123Z,66.50
2022-10-31T23:49:00.550Z,65.28
2022-10-31T23:51:26.848Z,67.82
2022-10-31T23:53:53.165Z,68.87
2022-10-31T23:56:19.519Z,69.88
2022-10-31T23:58:45.847Z,69.08
